sensor_id;sensor_type;location;lat;lon;timestamp;P1;durP1;ratioP1;P2;durP2;ratioP2
20482;SDS011;10400;53.198;6.592;2023-09-07T00:01:43;9.43;;;3.72;;
20482;SDS011;10400;53.198;6.592;2023-09-07T00:04:09;7.43;;;3.30;;
20482;SDS011;10400;53.198;6.592;2023-09-07T00:06:35;5.50;;;3.58;;
20482;SDS011;10400;53.198;6.592;2023-09-07T00:09:01;5.85;;;3.67;;
20482;SDS011;10400;53.198;6.592;2023-09-07T00:11:28;6.05;;;3.33;;
20482;SDS011;10400;53.198;6.592;2023-09-07T00:13:54;5.00;;;3.50;;
20482;SDS011;10400;53.198;6.592;2023-09-07T00:16:20;5.65;;;3.60;;
20482;SDS011;10400;53.198;6.592;2023-09-07T00:18:45;4.68;;;3.60;;
20482;SDS011;10400;53.198;6.592;2023-09-07T00:21:11;10.50;;;3.90;;
20482;SDS011;10400;53.198;6.592;2023-09-07T00:23:37;4.63;;;3.40;;
20482;SDS011;10400;53.198;6.592;2023-09-07T00:26:02;6.38;;;3.15;;
20482;SDS011;10400;53.198;6.592;2023-09-07T00:28:28;6.63;;;3.58;;
20482;SDS011;10400;53.198;6.592;2023-09-07T00:30:54;7.40;;;3.53;;
20482;SDS011;10400;53.198;6.592;2023-09-07T00:33:20;8.35;;;3.33;;
20482;SDS011;10400;53.198;6.592;2023-09-07T00:35:45;8.43;;;3.30;;
20482;SDS011;10400;53.198;6.592;2023-09-07T00:38:11;5.75;;;3.78;;
20482;SDS011;10400;53.198;6.592;2023-09-07T00:40:37;5.63;;;3.45;;
20482;SDS011;10400;53.198;6.592;2023-09-07T00:43:02;6.32;;;3.15;;
20482;SDS011;10400;53.198;6.592;2023-09-07T00:45:29;6.32;;;3.40;;
20482;SDS011;10400;53.198;6.592;2023-09-07T00:47:55;7.18;;;3.47;;
20482;SDS011;10400;53.198;6.592;2023-09-07T00:50:21;6.20;;;3.95;;
20482;SDS011;10400;53.198;6.592;2023-09-07T00:52:47;6.43;;;3.75;;
20482;SDS011;10400;53.198;6.592;2023-09-07T00:55:13;8.07;;;3.55;;
20482;SDS011;10400;53.198;6.592;2023-09-07T00:57:39;4.97;;;3.10;;
20482;SDS011;10400;53.198;6.592;2023-09-07T01:00:07;4.32;;;3.25;;
20482;SDS011;10400;53.198;6.592;2023-09-07T01:02:34;4.95;;;3.90;;
20482;SDS011;10400;53.198;6.592;2023-09-07T01:05:01;10.55;;;4.07;;
20482;SDS011;10400;53.198;6.592;2023-09-07T01:07:32;6.93;;;3.65;;
20482;SDS011;10400;53.198;6.592;2023-09-07T01:10:02;4.90;;;3.58;;
20482;SDS011;10400;53.198;6.592;2023-09-07T01:12:29;8.07;;;4.28;;
20482;SDS011;10400;53.198;6.592;2023-09-07T01:14:55;7.80;;;4.28;;
20482;SDS011;10400;53.198;6.592;2023-09-07T01:17:21;6.65;;;4.82;;
20482;SDS011;10400;53.198;6.592;2023-09-07T01:19:48;6.93;;;4.65;;
20482;SDS011;10400;53.198;6.592;2023-09-07T01:22:15;8.55;;;4.05;;
20482;SDS011;10400;53.198;6.592;2023-09-07T01:24:42;7.40;;;4.00;;
20482;SDS011;10400;53.198;6.592;2023-09-07T01:27:10;7.13;;;4.32;;
20482;SDS011;10400;53.198;6.592;2023-09-07T01:29:38;5.88;;;3.72;;
20482;SDS011;10400;53.198;6.592;2023-09-07T01:32:04;6.53;;;3.80;;
20482;SDS011;10400;53.198;6.592;2023-09-07T01:34:30;8.15;;;4.18;;
20482;SDS011;10400;53.198;6.592;2023-09-07T01:36:56;7.00;;;4.40;;
20482;SDS011;10400;53.198;6.592;2023-09-07T01:39:22;4.82;;;3.92;;
20482;SDS011;10400;53.198;6.592;2023-09-07T01:41:47;8.45;;;4.10;;
20482;SDS011;10400;53.198;6.592;2023-09-07T01:44:13;5.78;;;4.18;;
20482;SDS011;10400;53.198;6.592;2023-09-07T01:46:39;5.97;;;4.05;;
20482;SDS011;10400;53.198;6.592;2023-09-07T01:49:04;6.07;;;4.20;;
20482;SDS011;10400;53.198;6.592;2023-09-07T01:51:30;6.63;;;4.18;;
20482;SDS011;10400;53.198;6.592;2023-09-07T01:53:56;7.90;;;4.18;;
20482;SDS011;10400;53.198;6.592;2023-09-07T01:56:21;6.18;;;4.22;;
20482;SDS011;10400;53.198;6.592;2023-09-07T01:58:47;7.57;;;4.32;;
20482;SDS011;10400;53.198;6.592;2023-09-07T02:01:23;5.22;;;4.13;;
20482;SDS011;10400;53.198;6.592;2023-09-07T02:03:49;4.95;;;3.92;;
20482;SDS011;10400;53.198;6.592;2023-09-07T02:06:15;6.88;;;3.95;;
20482;SDS011;10400;53.198;6.592;2023-09-07T02:08:41;5.78;;;4.10;;
20482;SDS011;10400;53.198;6.592;2023-09-07T02:11:06;10.27;;;4.05;;
20482;SDS011;10400;53.198;6.592;2023-09-07T02:13:32;5.75;;;4.13;;
20482;SDS011;10400;53.198;6.592;2023-09-07T02:15:58;7.22;;;3.88;;
20482;SDS011;10400;53.198;6.592;2023-09-07T02:18:23;7.45;;;4.45;;
20482;SDS011;10400;53.198;6.592;2023-09-07T02:20:49;7.05;;;4.47;;
20482;SDS011;10400;53.198;6.592;2023-09-07T02:23:15;6.78;;;4.43;;
20482;SDS011;10400;53.198;6.592;2023-09-07T02:25:41;5.22;;;4.18;;
20482;SDS011;10400;53.198;6.592;2023-09-07T02:28:07;6.30;;;4.47;;
20482;SDS011;10400;53.198;6.592;2023-09-07T02:30:32;5.00;;;3.97;;
20482;SDS011;10400;53.198;6.592;2023-09-07T02:32:58;5.85;;;4.13;;
20482;SDS011;10400;53.198;6.592;2023-09-07T02:35:24;7.07;;;3.90;;
20482;SDS011;10400;53.198;6.592;2023-09-07T02:37:49;6.78;;;4.18;;
20482;SDS011;10400;53.198;6.592;2023-09-07T02:40:15;6.10;;;4.20;;
20482;SDS011;10400;53.198;6.592;2023-09-07T02:42:41;7.25;;;4.55;;
20482;SDS011;10400;53.198;6.592;2023-09-07T02:45:10;9.02;;;4.30;;
20482;SDS011;10400;53.198;6.592;2023-09-07T02:47:36;6.18;;;4.20;;
20482;SDS011;10400;53.198;6.592;2023-09-07T02:50:03;7.50;;;4.70;;
20482;SDS011;10400;53.198;6.592;2023-09-07T02:52:30;5.25;;;4.30;;
20482;SDS011;10400;53.198;6.592;2023-09-07T02:54:56;9.13;;;4.85;;
20482;SDS011;10400;53.198;6.592;2023-09-07T02:57:21;7.82;;;4.43;;
20482;SDS011;10400;53.198;6.592;2023-09-07T02:59:47;7.07;;;4.90;;
20482;SDS011;10400;53.198;6.592;2023-09-07T03:02:12;6.72;;;4.50;;
20482;SDS011;10400;53.198;6.592;2023-09-07T03:04:38;7.80;;;5.20;;
20482;SDS011;10400;53.198;6.592;2023-09-07T03:07:04;7.18;;;4.97;;
20482;SDS011;10400;53.198;6.592;2023-09-07T03:09:29;8.55;;;5.57;;
20482;SDS011;10400;53.198;6.592;2023-09-07T03:11:55;8.55;;;4.63;;
20482;SDS011;10400;53.198;6.592;2023-09-07T03:14:21;9.70;;;5.10;;
20482;SDS011;10400;53.198;6.592;2023-09-07T03:16:46;7.50;;;4.60;;
20482;SDS011;10400;53.198;6.592;2023-09-07T03:19:15;9.32;;;5.13;;
20482;SDS011;10400;53.198;6.592;2023-09-07T03:21:41;10.48;;;5.20;;
20482;SDS011;10400;53.198;6.592;2023-09-07T03:24:07;8.48;;;5.82;;
20482;SDS011;10400;53.198;6.592;2023-09-07T03:26:33;6.47;;;5.53;;
20482;SDS011;10400;53.198;6.592;2023-09-07T03:28:59;6.07;;;5.15;;
20482;SDS011;10400;53.198;6.592;2023-09-07T03:31:25;6.35;;;5.07;;
20482;SDS011;10400;53.198;6.592;2023-09-07T03:33:51;10.50;;;5.45;;
20482;SDS011;10400;53.198;6.592;2023-09-07T03:36:16;8.70;;;5.63;;
20482;SDS011;10400;53.198;6.592;2023-09-07T03:38:42;5.93;;;5.00;;
20482;SDS011;10400;53.198;6.592;2023-09-07T03:41:08;8.30;;;5.13;;
20482;SDS011;10400;53.198;6.592;2023-09-07T03:43:34;6.45;;;5.15;;
20482;SDS011;10400;53.198;6.592;2023-09-07T03:45:59;5.95;;;4.43;;
20482;SDS011;10400;53.198;6.592;2023-09-07T03:48:25;7.85;;;5.15;;
20482;SDS011;10400;53.198;6.592;2023-09-07T03:50:51;7.30;;;5.10;;
20482;SDS011;10400;53.198;6.592;2023-09-07T03:53:16;6.93;;;5.35;;
20482;SDS011;10400;53.198;6.592;2023-09-07T03:55:42;8.52;;;5.10;;
20482;SDS011;10400;53.198;6.592;2023-09-07T03:58:09;7.90;;;5.60;;
20482;SDS011;10400;53.198;6.592;2023-09-07T04:00:38;6.28;;;5.65;;
20482;SDS011;10400;53.198;6.592;2023-09-07T04:03:05;7.32;;;5.80;;
20482;SDS011;10400;53.198;6.592;2023-09-07T04:05:31;6.93;;;5.18;;
20482;SDS011;10400;53.198;6.592;2023-09-07T04:07:56;14.98;;;5.32;;
20482;SDS011;10400;53.198;6.592;2023-09-07T04:10:22;8.23;;;6.10;;
20482;SDS011;10400;53.198;6.592;2023-09-07T04:12:48;11.95;;;5.97;;
20482;SDS011;10400;53.198;6.592;2023-09-07T04:15:13;6.20;;;5.60;;
20482;SDS011;10400;53.198;6.592;2023-09-07T04:17:39;7.10;;;5.57;;
20482;SDS011;10400;53.198;6.592;2023-09-07T04:20:06;11.13;;;5.97;;
20482;SDS011;10400;53.198;6.592;2023-09-07T04:22:33;8.45;;;5.88;;
20482;SDS011;10400;53.198;6.592;2023-09-07T04:24:58;8.10;;;5.22;;
20482;SDS011;10400;53.198;6.592;2023-09-07T04:27:24;8.65;;;5.95;;
20482;SDS011;10400;53.198;6.592;2023-09-07T04:29:50;10.48;;;5.90;;
20482;SDS011;10400;53.198;6.592;2023-09-07T04:32:16;8.13;;;6.20;;
20482;SDS011;10400;53.198;6.592;2023-09-07T04:34:42;9.55;;;6.85;;
20482;SDS011;10400;53.198;6.592;2023-09-07T04:37:07;10.02;;;6.63;;
20482;SDS011;10400;53.198;6.592;2023-09-07T04:39:33;8.70;;;6.97;;
20482;SDS011;10400;53.198;6.592;2023-09-07T04:41:58;8.95;;;6.78;;
20482;SDS011;10400;53.198;6.592;2023-09-07T04:44:25;8.88;;;6.35;;
20482;SDS011;10400;53.198;6.592;2023-09-07T04:46:54;10.73;;;7.43;;
20482;SDS011;10400;53.198;6.592;2023-09-07T04:49:20;7.97;;;6.55;;
20482;SDS011;10400;53.198;6.592;2023-09-07T04:51:46;9.40;;;6.57;;
20482;SDS011;10400;53.198;6.592;2023-09-07T04:54:12;8.85;;;6.80;;
20482;SDS011;10400;53.198;6.592;2023-09-07T04:56:38;7.40;;;6.53;;
20482;SDS011;10400;53.198;6.592;2023-09-07T04:59:03;10.73;;;7.05;;
20482;SDS011;10400;53.198;6.592;2023-09-07T05:01:29;10.10;;;7.13;;
20482;SDS011;10400;53.198;6.592;2023-09-07T05:03:55;9.05;;;7.53;;
20482;SDS011;10400;53.198;6.592;2023-09-07T05:06:21;9.60;;;6.70;;
20482;SDS011;10400;53.198;6.592;2023-09-07T05:08:48;11.10;;;7.05;;
20482;SDS011;10400;53.198;6.592;2023-09-07T05:11:13;8.20;;;6.47;;
20482;SDS011;10400;53.198;6.592;2023-09-07T05:13:39;8.10;;;6.70;;
20482;SDS011;10400;53.198;6.592;2023-09-07T05:16:07;9.27;;;6.25;;
20482;SDS011;10400;53.198;6.592;2023-09-07T05:18:32;13.07;;;7.40;;
20482;SDS011;10400;53.198;6.592;2023-09-07T05:20:58;8.32;;;6.43;;
20482;SDS011;10400;53.198;6.592;2023-09-07T05:23:24;10.60;;;6.82;;
20482;SDS011;10400;53.198;6.592;2023-09-07T05:25:51;14.35;;;6.93;;
20482;SDS011;10400;53.198;6.592;2023-09-07T05:28:18;14.02;;;6.70;;
20482;SDS011;10400;53.198;6.592;2023-09-07T05:30:45;9.30;;;6.78;;
20482;SDS011;10400;53.198;6.592;2023-09-07T05:33:11;14.18;;;7.07;;
20482;SDS011;10400;53.198;6.592;2023-09-07T05:35:38;19.23;;;7.32;;
20482;SDS011;10400;53.198;6.592;2023-09-07T05:38:05;12.82;;;7.40;;
20482;SDS011;10400;53.198;6.592;2023-09-07T05:40:34;21.33;;;7.22;;
20482;SDS011;10400;53.198;6.592;2023-09-07T05:43:04;15.73;;;7.68;;
20482;SDS011;10400;53.198;6.592;2023-09-07T05:45:30;16.77;;;9.00;;
20482;SDS011;10400;53.198;6.592;2023-09-07T05:47:56;18.27;;;9.75;;
20482;SDS011;10400;53.198;6.592;2023-09-07T05:50:22;19.25;;;11.88;;
20482;SDS011;10400;53.198;6.592;2023-09-07T05:52:48;19.38;;;10.93;;
20482;SDS011;10400;53.198;6.592;2023-09-07T05:55:14;20.38;;;11.20;;
20482;SDS011;10400;53.198;6.592;2023-09-07T05:57:39;19.80;;;12.05;;
20482;SDS011;10400;53.198;6.592;2023-09-07T06:00:05;19.52;;;11.43;;
20482;SDS011;10400;53.198;6.592;2023-09-07T06:02:31;20.23;;;11.30;;
20482;SDS011;10400;53.198;6.592;2023-09-07T06:04:57;18.88;;;11.88;;
20482;SDS011;10400;53.198;6.592;2023-09-07T06:07:23;20.05;;;13.90;;
20482;SDS011;10400;53.198;6.592;2023-09-07T06:09:48;19.13;;;13.65;;
20482;SDS011;10400;53.198;6.592;2023-09-07T06:12:14;28.02;;;13.93;;
20482;SDS011;10400;53.198;6.592;2023-09-07T06:14:44;18.38;;;14.25;;
20482;SDS011;10400;53.198;6.592;2023-09-07T06:17:10;22.40;;;13.90;;
20482;SDS011;10400;53.198;6.592;2023-09-07T06:19:35;23.00;;;15.23;;
20482;SDS011;10400;53.198;6.592;2023-09-07T06:22:01;19.27;;;13.20;;
20482;SDS011;10400;53.198;6.592;2023-09-07T06:24:27;20.50;;;13.50;;
20482;SDS011;10400;53.198;6.592;2023-09-07T06:26:52;15.80;;;12.93;;
20482;SDS011;10400;53.198;6.592;2023-09-07T06:29:18;18.38;;;12.40;;
20482;SDS011;10400;53.198;6.592;2023-09-07T06:31:44;17.30;;;12.88;;
20482;SDS011;10400;53.198;6.592;2023-09-07T06:34:09;17.77;;;12.43;;
20482;SDS011;10400;53.198;6.592;2023-09-07T06:36:35;17.90;;;11.68;;
20482;SDS011;10400;53.198;6.592;2023-09-07T06:39:01;18.00;;;12.30;;
20482;SDS011;10400;53.198;6.592;2023-09-07T06:41:27;14.48;;;9.68;;
20482;SDS011;10400;53.198;6.592;2023-09-07T06:43:53;14.30;;;9.77;;
20482;SDS011;10400;53.198;6.592;2023-09-07T06:46:18;15.52;;;8.23;;
20482;SDS011;10400;53.198;6.592;2023-09-07T06:48:44;19.45;;;8.70;;
20482;SDS011;10400;53.198;6.592;2023-09-07T06:51:13;15.48;;;8.45;;
20482;SDS011;10400;53.198;6.592;2023-09-07T06:53:39;21.73;;;8.43;;
20482;SDS011;10400;53.198;6.592;2023-09-07T06:56:06;15.95;;;8.25;;
20482;SDS011;10400;53.198;6.592;2023-09-07T06:58:31;15.93;;;8.50;;
20482;SDS011;10400;53.198;6.592;2023-09-07T07:00:59;15.40;;;8.52;;
20482;SDS011;10400;53.198;6.592;2023-09-07T07:03:26;16.48;;;8.82;;
20482;SDS011;10400;53.198;6.592;2023-09-07T07:05:53;11.13;;;6.97;;
20482;SDS011;10400;53.198;6.592;2023-09-07T07:08:19;13.30;;;7.68;;
20482;SDS011;10400;53.198;6.592;2023-09-07T07:10:45;13.05;;;7.57;;
20482;SDS011;10400;53.198;6.592;2023-09-07T07:13:11;9.73;;;6.72;;
20482;SDS011;10400;53.198;6.592;2023-09-07T07:15:36;9.23;;;6.93;;
20482;SDS011;10400;53.198;6.592;2023-09-07T07:18:02;8.50;;;6.50;;
20482;SDS011;10400;53.198;6.592;2023-09-07T07:20:37;15.38;;;6.97;;
20482;SDS011;10400;53.198;6.592;2023-09-07T07:23:03;10.90;;;7.05;;
20482;SDS011;10400;53.198;6.592;2023-09-07T07:25:31;11.82;;;7.10;;
20482;SDS011;10400;53.198;6.592;2023-09-07T07:27:58;10.13;;;6.93;;
20482;SDS011;10400;53.198;6.592;2023-09-07T07:30:30;8.38;;;6.47;;
20482;SDS011;10400;53.198;6.592;2023-09-07T07:33:01;10.38;;;6.82;;
20482;SDS011;10400;53.198;6.592;2023-09-07T07:35:30;10.48;;;6.82;;
20482;SDS011;10400;53.198;6.592;2023-09-07T07:37:57;10.13;;;7.07;;
20482;SDS011;10400;53.198;6.592;2023-09-07T07:40:22;9.98;;;7.60;;
20482;SDS011;10400;53.198;6.592;2023-09-07T07:42:48;12.85;;;8.10;;
20482;SDS011;10400;53.198;6.592;2023-09-07T07:45:15;12.13;;;7.57;;
20482;SDS011;10400;53.198;6.592;2023-09-07T07:47:44;9.85;;;7.47;;
20482;SDS011;10400;53.198;6.592;2023-09-07T07:50:11;12.88;;;7.28;;
20482;SDS011;10400;53.198;6.592;2023-09-07T07:52:36;10.30;;;6.80;;
20482;SDS011;10400;53.198;6.592;2023-09-07T07:55:02;11.32;;;7.38;;
20482;SDS011;10400;53.198;6.592;2023-09-07T07:57:28;12.10;;;6.38;;
20482;SDS011;10400;53.198;6.592;2023-09-07T07:59:55;11.02;;;6.00;;
20482;SDS011;10400;53.198;6.592;2023-09-07T08:02:21;8.27;;;6.68;;
20482;SDS011;10400;53.198;6.592;2023-09-07T08:22:09;7.13;;;5.47;;
20482;SDS011;10400;53.198;6.592;2023-09-07T08:24:35;9.23;;;4.57;;
20482;SDS011;10400;53.198;6.592;2023-09-07T08:27:00;9.23;;;4.70;;
20482;SDS011;10400;53.198;6.592;2023-09-07T08:29:26;10.18;;;4.78;;
20482;SDS011;10400;53.198;6.592;2023-09-07T08:31:55;7.35;;;4.75;;
20482;SDS011;10400;53.198;6.592;2023-09-07T08:34:22;9.20;;;4.90;;
20482;SDS011;10400;53.198;6.592;2023-09-07T08:36:48;10.63;;;5.70;;
20482;SDS011;10400;53.198;6.592;2023-09-07T08:39:18;11.15;;;6.75;;
20482;SDS011;10400;53.198;6.592;2023-09-07T08:41:45;8.50;;;5.85;;
20482;SDS011;10400;53.198;6.592;2023-09-07T08:44:15;13.77;;;6.85;;
20482;SDS011;10400;53.198;6.592;2023-09-07T08:46:42;10.02;;;6.20;;
20482;SDS011;10400;53.198;6.592;2023-09-07T08:49:12;8.18;;;5.50;;
20482;SDS011;10400;53.198;6.592;2023-09-07T08:51:38;11.48;;;5.50;;
20482;SDS011;10400;53.198;6.592;2023-09-07T08:54:04;7.22;;;5.57;;
20482;SDS011;10400;53.198;6.592;2023-09-07T08:56:32;8.07;;;5.45;;
20482;SDS011;10400;53.198;6.592;2023-09-07T08:58:58;7.65;;;5.47;;
20482;SDS011;10400;53.198;6.592;2023-09-07T09:01:24;6.97;;;5.20;;
20482;SDS011;10400;53.198;6.592;2023-09-07T09:03:50;8.60;;;5.57;;
20482;SDS011;10400;53.198;6.592;2023-09-07T09:06:16;8.40;;;4.63;;
20482;SDS011;10400;53.198;6.592;2023-09-07T09:08:46;7.22;;;4.50;;
20482;SDS011;10400;53.198;6.592;2023-09-07T09:11:16;9.82;;;4.28;;
20482;SDS011;10400;53.198;6.592;2023-09-07T09:13:43;7.80;;;3.85;;
20482;SDS011;10400;53.198;6.592;2023-09-07T09:16:09;6.18;;;4.35;;
20482;SDS011;10400;53.198;6.592;2023-09-07T09:18:36;8.32;;;4.10;;
20482;SDS011;10400;53.198;6.592;2023-09-07T09:21:02;4.93;;;3.55;;
20482;SDS011;10400;53.198;6.592;2023-09-07T09:23:30;6.22;;;4.25;;
20482;SDS011;10400;53.198;6.592;2023-09-07T09:26:01;8.43;;;4.05;;
20482;SDS011;10400;53.198;6.592;2023-09-07T09:28:34;9.20;;;4.50;;
20482;SDS011;10400;53.198;6.592;2023-09-07T09:31:00;8.43;;;4.07;;
20482;SDS011;10400;53.198;6.592;2023-09-07T09:33:30;7.70;;;4.35;;
20482;SDS011;10400;53.198;6.592;2023-09-07T09:35:56;7.25;;;4.18;;
20482;SDS011;10400;53.198;6.592;2023-09-07T09:38:22;5.47;;;4.75;;
20482;SDS011;10400;53.198;6.592;2023-09-07T09:40:49;8.13;;;4.50;;
20482;SDS011;10400;53.198;6.592;2023-09-07T09:43:15;6.32;;;3.75;;
20482;SDS011;10400;53.198;6.592;2023-09-07T09:45:41;10.43;;;4.50;;
20482;SDS011;10400;53.198;6.592;2023-09-07T09:48:07;8.52;;;3.90;;
20482;SDS011;10400;53.198;6.592;2023-09-07T09:50:33;8.73;;;4.18;;
20482;SDS011;10400;53.198;6.592;2023-09-07T09:53:03;9.02;;;4.40;;
20482;SDS011;10400;53.198;6.592;2023-09-07T09:55:35;11.30;;;4.10;;
20482;SDS011;10400;53.198;6.592;2023-09-07T09:58:03;5.28;;;3.40;;
20482;SDS011;10400;53.198;6.592;2023-09-07T10:00:28;8.65;;;3.78;;
20482;SDS011;10400;53.198;6.592;2023-09-07T10:03:04;6.47;;;4.13;;
20482;SDS011;10400;53.198;6.592;2023-09-07T10:05:32;6.03;;;3.90;;
20482;SDS011;10400;53.198;6.592;2023-09-07T10:08:03;5.53;;;3.78;;
20482;SDS011;10400;53.198;6.592;2023-09-07T10:10:38;8.07;;;3.92;;
20482;SDS011;10400;53.198;6.592;2023-09-07T10:13:06;6.95;;;3.88;;
20482;SDS011;10400;53.198;6.592;2023-09-07T10:15:32;8.75;;;3.50;;
20482;SDS011;10400;53.198;6.592;2023-09-07T10:23:19;5.28;;;3.47;;
20482;SDS011;10400;53.198;6.592;2023-09-07T10:25:52;6.25;;;3.75;;
20482;SDS011;10400;53.198;6.592;2023-09-07T10:28:24;5.55;;;3.65;;
20482;SDS011;10400;53.198;6.592;2023-09-07T10:31:03;5.85;;;3.72;;
20482;SDS011;10400;53.198;6.592;2023-09-07T10:33:41;6.05;;;3.78;;
20482;SDS011;10400;53.198;6.592;2023-09-07T10:36:06;6.25;;;4.00;;
20482;SDS011;10400;53.198;6.592;2023-09-07T10:38:33;8.05;;;4.20;;
20482;SDS011;10400;53.198;6.592;2023-09-07T10:41:01;6.43;;;3.58;;
20482;SDS011;10400;53.198;6.592;2023-09-07T10:43:35;6.78;;;4.03;;
20482;SDS011;10400;53.198;6.592;2023-09-07T10:46:23;7.13;;;4.03;;
20482;SDS011;10400;53.198;6.592;2023-09-07T10:48:52;10.15;;;3.67;;
20482;SDS011;10400;53.198;6.592;2023-09-07T10:51:19;6.57;;;4.10;;
20482;SDS011;10400;53.198;6.592;2023-09-07T10:53:45;6.10;;;3.70;;
20482;SDS011;10400;53.198;6.592;2023-09-07T10:56:12;7.30;;;3.58;;
20482;SDS011;10400;53.198;6.592;2023-09-07T10:58:37;9.90;;;3.53;;
20482;SDS011;10400;53.198;6.592;2023-09-07T11:01:09;11.35;;;4.15;;
20482;SDS011;10400;53.198;6.592;2023-09-07T11:03:36;8.07;;;3.55;;
20482;SDS011;10400;53.198;6.592;2023-09-07T11:06:12;4.50;;;3.58;;
20482;SDS011;10400;53.198;6.592;2023-09-07T11:08:45;7.25;;;3.70;;
20482;SDS011;10400;53.198;6.592;2023-09-07T11:11:11;5.53;;;3.47;;
20482;SDS011;10400;53.198;6.592;2023-09-07T11:13:37;8.07;;;3.55;;
20482;SDS011;10400;53.198;6.592;2023-09-07T11:16:06;7.93;;;3.60;;
20482;SDS011;10400;53.198;6.592;2023-09-07T11:18:33;6.63;;;3.20;;
20482;SDS011;10400;53.198;6.592;2023-09-07T11:21:01;5.50;;;3.40;;
20482;SDS011;10400;53.198;6.592;2023-09-07T11:23:29;8.90;;;3.38;;
20482;SDS011;10400;53.198;6.592;2023-09-07T11:26:03;5.43;;;3.30;;
20482;SDS011;10400;53.198;6.592;2023-09-07T11:28:30;6.93;;;3.22;;
20482;SDS011;10400;53.198;6.592;2023-09-07T11:30:56;9.27;;;3.47;;
20482;SDS011;10400;53.198;6.592;2023-09-07T11:33:23;6.28;;;3.28;;
20482;SDS011;10400;53.198;6.592;2023-09-07T11:35:49;8.10;;;3.55;;
20482;SDS011;10400;53.198;6.592;2023-09-07T11:38:15;6.80;;;3.75;;
20482;SDS011;10400;53.198;6.592;2023-09-07T11:40:42;10.07;;;3.58;;
20482;SDS011;10400;53.198;6.592;2023-09-07T11:43:13;5.00;;;3.50;;
20482;SDS011;10400;53.198;6.592;2023-09-07T11:45:40;5.35;;;3.28;;
20482;SDS011;10400;53.198;6.592;2023-09-07T11:48:07;8.13;;;3.60;;
20482;SDS011;10400;53.198;6.592;2023-09-07T11:50:34;7.47;;;3.55;;
20482;SDS011;10400;53.198;6.592;2023-09-07T11:53:01;7.05;;;3.45;;
20482;SDS011;10400;53.198;6.592;2023-09-07T11:55:28;4.88;;;3.35;;
20482;SDS011;10400;53.198;6.592;2023-09-07T11:57:54;6.57;;;3.22;;
20482;SDS011;10400;53.198;6.592;2023-09-07T12:00:19;4.97;;;3.13;;
20482;SDS011;10400;53.198;6.592;2023-09-07T12:02:47;5.57;;;3.50;;
20482;SDS011;10400;53.198;6.592;2023-09-07T12:05:13;5.53;;;3.35;;
20482;SDS011;10400;53.198;6.592;2023-09-07T12:07:40;5.65;;;3.38;;
20482;SDS011;10400;53.198;6.592;2023-09-07T12:10:09;8.35;;;3.80;;
20482;SDS011;10400;53.198;6.592;2023-09-07T12:12:41;7.53;;;3.60;;
20482;SDS011;10400;53.198;6.592;2023-09-07T12:15:07;5.75;;;3.25;;
20482;SDS011;10400;53.198;6.592;2023-09-07T12:17:33;8.18;;;3.15;;
20482;SDS011;10400;53.198;6.592;2023-09-07T12:20:02;6.00;;;3.63;;
20482;SDS011;10400;53.198;6.592;2023-09-07T12:22:30;3.80;;;3.13;;
20482;SDS011;10400;53.198;6.592;2023-09-07T12:24:57;5.65;;;3.38;;
20482;SDS011;10400;53.198;6.592;2023-09-07T12:27:23;6.65;;;3.45;;
20482;SDS011;10400;53.198;6.592;2023-09-07T12:29:52;6.28;;;3.42;;
20482;SDS011;10400;53.198;6.592;2023-09-07T12:32:17;6.10;;;3.42;;
20482;SDS011;10400;53.198;6.592;2023-09-07T12:34:43;3.92;;;3.08;;
20482;SDS011;10400;53.198;6.592;2023-09-07T12:37:08;11.98;;;3.35;;
20482;SDS011;10400;53.198;6.592;2023-09-07T12:39:37;6.78;;;3.35;;
20482;SDS011;10400;53.198;6.592;2023-09-07T12:42:03;6.45;;;3.63;;
20482;SDS011;10400;53.198;6.592;2023-09-07T12:44:29;8.57;;;3.58;;
20482;SDS011;10400;53.198;6.592;2023-09-07T12:46:55;5.85;;;3.28;;
20482;SDS011;10400;53.198;6.592;2023-09-07T12:49:21;8.18;;;3.42;;
20482;SDS011;10400;53.198;6.592;2023-09-07T12:51:47;7.55;;;3.70;;
20482;SDS011;10400;53.198;6.592;2023-09-07T12:54:12;4.28;;;3.30;;
20482;SDS011;10400;53.198;6.592;2023-09-07T12:56:38;5.05;;;3.75;;
20482;SDS011;10400;53.198;6.592;2023-09-07T12:59:07;6.88;;;3.08;;
20482;SDS011;10400;53.198;6.592;2023-09-07T13:01:36;8.55;;;3.03;;
20482;SDS011;10400;53.198;6.592;2023-09-07T13:04:02;7.45;;;4.10;;
20482;SDS011;10400;53.198;6.592;2023-09-07T13:06:28;5.65;;;3.20;;
20482;SDS011;10400;53.198;6.592;2023-09-07T13:08:54;6.22;;;3.25;;
20482;SDS011;10400;53.198;6.592;2023-09-07T13:11:20;7.55;;;3.28;;
20482;SDS011;10400;53.198;6.592;2023-09-07T13:13:49;6.97;;;3.45;;
20482;SDS011;10400;53.198;6.592;2023-09-07T13:21:25;6.13;;;3.25;;
20482;SDS011;10400;53.198;6.592;2023-09-07T13:23:51;4.75;;;3.50;;
20482;SDS011;10400;53.198;6.592;2023-09-07T13:26:16;7.40;;;3.25;;
20482;SDS011;10400;53.198;6.592;2023-09-07T13:28:42;5.05;;;3.20;;
20482;SDS011;10400;53.198;6.592;2023-09-07T13:31:08;5.25;;;3.17;;
20482;SDS011;10400;53.198;6.592;2023-09-07T13:33:33;5.72;;;2.83;;
20482;SDS011;10400;53.198;6.592;2023-09-07T13:35:59;5.95;;;3.35;;
20482;SDS011;10400;53.198;6.592;2023-09-07T13:38:25;6.78;;;3.42;;
20482;SDS011;10400;53.198;6.592;2023-09-07T13:40:50;4.72;;;3.42;;
20482;SDS011;10400;53.198;6.592;2023-09-07T13:43:16;6.70;;;3.72;;
20482;SDS011;10400;53.198;6.592;2023-09-07T13:45:41;4.25;;;3.33;;
20482;SDS011;10400;53.198;6.592;2023-09-07T13:48:09;6.07;;;3.47;;
20482;SDS011;10400;53.198;6.592;2023-09-07T13:50:34;4.30;;;3.30;;
20482;SDS011;10400;53.198;6.592;2023-09-07T14:26:48;5.15;;;2.88;;
20482;SDS011;10400;53.198;6.592;2023-09-07T14:29:18;6.65;;;3.00;;
20482;SDS011;10400;53.198;6.592;2023-09-07T14:31:44;8.50;;;3.30;;
20482;SDS011;10400;53.198;6.592;2023-09-07T14:34:12;7.78;;;3.35;;
20482;SDS011;10400;53.198;6.592;2023-09-07T14:40:25;6.32;;;3.53;;
20482;SDS011;10400;53.198;6.592;2023-09-07T14:43:34;5.68;;;2.95;;
20482;SDS011;10400;53.198;6.592;2023-09-07T14:45:48;7.53;;;3.10;;
20482;SDS011;10400;53.198;6.592;2023-09-07T14:48:24;4.47;;;3.40;;
20482;SDS011;10400;53.198;6.592;2023-09-07T14:54:18;6.53;;;2.95;;
20482;SDS011;10400;53.198;6.592;2023-09-07T14:57:35;6.85;;;3.33;;
20482;SDS011;10400;53.198;6.592;2023-09-07T15:00:25;6.07;;;3.20;;
20482;SDS011;10400;53.198;6.592;2023-09-07T15:02:52;7.30;;;3.50;;
20482;SDS011;10400;53.198;6.592;2023-09-07T15:05:18;9.77;;;3.40;;
20482;SDS011;10400;53.198;6.592;2023-09-07T15:07:54;6.05;;;3.10;;
20482;SDS011;10400;53.198;6.592;2023-09-07T15:10:28;8.43;;;3.45;;
20482;SDS011;10400;53.198;6.592;2023-09-07T15:13:19;4.70;;;3.30;;
20482;SDS011;10400;53.198;6.592;2023-09-07T15:15:46;7.60;;;3.20;;
20482;SDS011;10400;53.198;6.592;2023-09-07T15:18:22;6.57;;;3.08;;
20482;SDS011;10400;53.198;6.592;2023-09-07T15:23:39;6.78;;;3.00;;
20482;SDS011;10400;53.198;6.592;2023-09-07T15:26:13;5.18;;;3.13;;
20482;SDS011;10400;53.198;6.592;2023-09-07T15:28:51;4.22;;;3.13;;
20482;SDS011;10400;53.198;6.592;2023-09-07T15:38:38;4.28;;;3.47;;
20482;SDS011;10400;53.198;6.592;2023-09-07T15:41:48;3.63;;;3.30;;
20482;SDS011;10400;53.198;6.592;2023-09-07T15:44:19;4.97;;;3.38;;
20482;SDS011;10400;53.198;6.592;2023-09-07T15:47:13;5.55;;;3.05;;
20482;SDS011;10400;53.198;6.592;2023-09-07T15:53:43;5.55;;;3.30;;
20482;SDS011;10400;53.198;6.592;2023-09-07T15:56:33;8.15;;;3.55;;
20482;SDS011;10400;53.198;6.592;2023-09-07T16:02:28;6.13;;;2.80;;
20482;SDS011;10400;53.198;6.592;2023-09-07T16:05:03;6.97;;;3.17;;
20482;SDS011;10400;53.198;6.592;2023-09-07T16:10:27;9.63;;;3.30;;
20482;SDS011;10400;53.198;6.592;2023-09-07T16:13:45;9.02;;;3.50;;
20482;SDS011;10400;53.198;6.592;2023-09-07T16:19:42;8.80;;;3.58;;